sensor_id;sensor_type;location;lat;lon;timestamp;temperature;humidity
1524;DHT22;755;53.658;10.118;2022-08-04T00:05:25;21.30;99.90
1524;DHT22;755;53.658;10.118;2022-08-04T00:15:34;21.20;99.90
1524;DHT22;755;53.658;10.118;2022-08-04T00:25:38;20.90;99.90
1524;DHT22;755;53.658;10.118;2022-08-04T00:35:44;20.70;99.90
1524;DHT22;755;53.658;10.118;2022-08-04T00:56:50;20.70;99.90
1524;DHT22;755;53.658;10.118;2022-08-04T01:07:19;20.50;99.90
1524;DHT22;755;53.658;10.118;2022-08-04T01:17:36;20.40;99.90
1524;DHT22;755;53.658;10.118;2022-08-04T01:28:05;20.30;99.90
1524;DHT22;755;53.658;10.118;2022-08-04T01:38:23;20.30;99.90
1524;DHT22;755;53.658;10.118;2022-08-04T01:48:33;20.10;99.90
1524;DHT22;755;53.658;10.118;2022-08-04T01:58:39;19.90;99.90
1524;DHT22;755;53.658;10.118;2022-08-04T02:08:48;19.60;99.90
1524;DHT22;755;53.658;10.118;2022-08-04T02:19:34;19.90;99.90
1524;DHT22;755;53.658;10.118;2022-08-04T02:29:44;19.70;99.90
1524;DHT22;755;53.658;10.118;2022-08-04T02:39:52;19.50;99.90
1524;DHT22;755;53.658;10.118;2022-08-04T02:49:56;19.30;99.90
1524;DHT22;755;53.658;10.118;2022-08-04T03:00:12;19.20;99.90
1524;DHT22;755;53.658;10.118;2022-08-04T03:21:12;19.00;99.90
1524;DHT22;755;53.658;10.118;2022-08-04T03:52:59;18.70;99.90
1524;DHT22;755;53.658;10.118;2022-08-04T04:03:43;18.70;99.90
1524;DHT22;755;53.658;10.118;2022-08-04T04:14:17;18.70;99.90
1524;DHT22;755;53.658;10.118;2022-08-04T04:24:37;18.80;99.90
1524;DHT22;755;53.658;10.118;2022-08-04T04:34:52;18.90;99.90
1524;DHT22;755;53.658;10.118;2022-08-04T04:45:14;18.80;99.90
1524;DHT22;755;53.658;10.118;2022-08-04T04:55:23;19.00;99.90
1524;DHT22;755;53.658;10.118;2022-08-04T05:05:32;19.10;99.90
1524;DHT22;755;53.658;10.118;2022-08-04T05:15:40;19.40;99.90
1524;DHT22;755;53.658;10.118;2022-08-04T05:25:50;19.60;99.90
1524;DHT22;755;53.658;10.118;2022-08-04T05:35:56;20.00;99.90
1524;DHT22;755;53.658;10.118;2022-08-04T05:46:01;20.40;99.90
1524;DHT22;755;53.658;10.118;2022-08-04T05:56:06;20.80;99.90
1524;DHT22;755;53.658;10.118;2022-08-04T06:06:10;21.40;99.90
1524;DHT22;755;53.658;10.118;2022-08-04T06:16:15;21.90;99.90
1524;DHT22;755;53.658;10.118;2022-08-04T06:26:19;22.20;99.90
1524;DHT22;755;53.658;10.118;2022-08-04T06:36:22;22.50;99.90
1524;DHT22;755;53.658;10.118;2022-08-04T06:46:27;22.60;99.90
1524;DHT22;755;53.658;10.118;2022-08-04T06:56:30;23.00;99.90
1524;DHT22;755;53.658;10.118;2022-08-04T07:06:36;23.30;99.90
1524;DHT22;755;53.658;10.118;2022-08-04T07:16:39;23.80;99.90
1524;DHT22;755;53.658;10.118;2022-08-04T07:26:48;24.20;99.90
1524;DHT22;755;53.658;10.118;2022-08-04T07:37:06;24.70;1.00
1524;DHT22;755;53.658;10.118;2022-08-04T07:47:10;25.40;99.90
1524;DHT22;755;53.658;10.118;2022-08-04T07:57:12;25.90;99.90
1524;DHT22;755;53.658;10.118;2022-08-04T08:07:18;26.50;1.00
1524;DHT22;755;53.658;10.118;2022-08-04T08:17:20;27.40;99.90
1524;DHT22;755;53.658;10.118;2022-08-04T08:27:24;28.10;99.90
1524;DHT22;755;53.658;10.118;2022-08-04T08:37:31;28.90;99.90
1524;DHT22;755;53.658;10.118;2022-08-04T08:47:55;29.90;99.90
1524;DHT22;755;53.658;10.118;2022-08-04T08:58:24;30.70;99.80
1524;DHT22;755;53.658;10.118;2022-08-04T09:08:49;29.80;99.90
1524;DHT22;755;53.658;10.118;2022-08-04T09:18:58;30.30;34.90
1524;DHT22;755;53.658;10.118;2022-08-04T09:29:09;31.30;1.00
1524;DHT22;755;53.658;10.118;2022-08-04T09:39:23;32.20;1.00
1524;DHT22;755;53.658;10.118;2022-08-04T09:49:32;32.60;1.00
1524;DHT22;755;53.658;10.118;2022-08-04T09:59:43;33.20;1.00
1524;DHT22;755;53.658;10.118;2022-08-04T10:09:56;33.00;1.00
1524;DHT22;755;53.658;10.118;2022-08-04T10:20:03;32.90;1.00
1524;DHT22;755;53.658;10.118;2022-08-04T10:30:10;32.90;1.00
1524;DHT22;755;53.658;10.118;2022-08-04T10:40:16;33.10;1.00
1524;DHT22;755;53.658;10.118;2022-08-04T10:50:54;33.10;1.00
1524;DHT22;755;53.658;10.118;2022-08-04T11:00:59;33.10;1.00
1524;DHT22;755;53.658;10.118;2022-08-04T11:11:12;32.90;1.00
1524;DHT22;755;53.658;10.118;2022-08-04T11:21:19;33.00;1.00
1524;DHT22;755;53.658;10.118;2022-08-04T11:31:26;33.20;1.00
1524;DHT22;755;53.658;10.118;2022-08-04T11:41:45;33.50;1.00
1524;DHT22;755;53.658;10.118;2022-08-04T11:51:51;32.90;1.00
1524;DHT22;755;53.658;10.118;2022-08-04T12:02:09;32.90;1.00
1524;DHT22;755;53.658;10.118;2022-08-04T12:12:24;33.60;1.00
1524;DHT22;755;53.658;10.118;2022-08-04T12:22:34;33.70;1.00
1524;DHT22;755;53.658;10.118;2022-08-04T12:32:42;33.70;1.00
1524;DHT22;755;53.658;10.118;2022-08-04T12:42:54;34.50;1.00
1524;DHT22;755;53.658;10.118;2022-08-04T12:53:00;34.60;99.90
1524;DHT22;755;53.658;10.118;2022-08-04T13:03:05;34.00;99.90
1524;DHT22;755;53.658;10.118;2022-08-04T13:13:15;34.70;99.90
1524;DHT22;755;53.658;10.118;2022-08-04T13:23:18;34.60;99.90
1524;DHT22;755;53.658;10.118;2022-08-04T13:33:27;35.10;99.90
1524;DHT22;755;53.658;10.118;2022-08-04T13:43:32;34.70;99.90
1524;DHT22;755;53.658;10.118;2022-08-04T13:53:37;34.30;99.90
1524;DHT22;755;53.658;10.118;2022-08-04T14:03:44;34.70;99.90
1524;DHT22;755;53.658;10.118;2022-08-04T14:13:54;33.30;99.90
1524;DHT22;755;53.658;10.118;2022-08-04T14:23:56;33.90;99.90
1524;DHT22;755;53.658;10.118;2022-08-04T14:34:00;34.50;99.90
1524;DHT22;755;53.658;10.118;2022-08-04T14:44:03;33.60;99.90
1524;DHT22;755;53.658;10.118;2022-08-04T14:54:08;33.50;99.90
1524;DHT22;755;53.658;10.118;2022-08-04T15:04:11;32.90;99.90
1524;DHT22;755;53.658;10.118;2022-08-04T15:14:22;32.30;99.90
1524;DHT22;755;53.658;10.118;2022-08-04T15:24:27;31.30;99.90
1524;DHT22;755;53.658;10.118;2022-08-04T15:34:47;30.40;1.00
1524;DHT22;755;53.658;10.118;2022-08-04T15:45:21;28.40;99.90
1524;DHT22;755;53.658;10.118;2022-08-04T15:55:39;27.70;40.10
1524;DHT22;755;53.658;10.118;2022-08-04T16:05:51;27.30;1.00
1524;DHT22;755;53.658;10.118;2022-08-04T16:15:55;26.60;1.00
1524;DHT22;755;53.658;10.118;2022-08-04T16:25:58;25.90;1.00
1524;DHT22;755;53.658;10.118;2022-08-04T16:36:05;24.50;1.00
1524;DHT22;755;53.658;10.118;2022-08-04T16:46:10;24.60;30.20
1524;DHT22;755;53.658;10.118;2022-08-04T16:56:15;25.20;1.00
1524;DHT22;755;53.658;10.118;2022-08-04T17:06:27;25.20;1.00
1524;DHT22;755;53.658;10.118;2022-08-04T17:16:40;24.40;1.00
1524;DHT22;755;53.658;10.118;2022-08-04T17:26:49;24.60;1.00
1524;DHT22;755;53.658;10.118;2022-08-04T17:37:00;24.20;76.40
1524;DHT22;755;53.658;10.118;2022-08-04T17:47:15;23.50;99.90
1524;DHT22;755;53.658;10.118;2022-08-04T17:57:24;23.70;99.90
1524;DHT22;755;53.658;10.118;2022-08-04T18:07:39;23.80;1.00
1524;DHT22;755;53.658;10.118;2022-08-04T18:17:43;23.70;99.90
1524;DHT22;755;53.658;10.118;2022-08-04T18:27:50;23.60;99.90
1524;DHT22;755;53.658;10.118;2022-08-04T18:37:58;23.70;93.40
1524;DHT22;755;53.658;10.118;2022-08-04T18:48:00;23.40;1.00
1524;DHT22;755;53.658;10.118;2022-08-04T18:58:07;23.60;1.00
1524;DHT22;755;53.658;10.118;2022-08-04T19:08:09;23.40;99.90
1524;DHT22;755;53.658;10.118;2022-08-04T19:18:13;23.40;99.90
1524;DHT22;755;53.658;10.118;2022-08-04T19:28:23;23.00;1.00
1524;DHT22;755;53.658;10.118;2022-08-04T19:38:30;22.80;1.00
1524;DHT22;755;53.658;10.118;2022-08-04T19:48:33;22.60;1.00
1524;DHT22;755;53.658;10.118;2022-08-04T19:58:37;22.60;99.90
1524;DHT22;755;53.658;10.118;2022-08-04T20:08:41;22.40;99.90
1524;DHT22;755;53.658;10.118;2022-08-04T20:18:45;22.50;99.90
1524;DHT22;755;53.658;10.118;2022-08-04T20:28:47;22.40;1.00
1524;DHT22;755;53.658;10.118;2022-08-04T20:38:51;22.20;1.00
1524;DHT22;755;53.658;10.118;2022-08-04T20:48:54;22.10;1.00
1524;DHT22;755;53.658;10.118;2022-08-04T20:58:58;21.90;67.20
1524;DHT22;755;53.658;10.118;2022-08-04T21:09:00;21.80;99.30
1524;DHT22;755;53.658;10.118;2022-08-04T21:19:04;21.60;1.00
1524;DHT22;755;53.658;10.118;2022-08-04T21:29:09;21.50;1.00
1524;DHT22;755;53.658;10.118;2022-08-04T21:39:13;21.30;72.50
1524;DHT22;755;53.658;10.118;2022-08-04T21:49:15;21.10;99.90
1524;DHT22;755;53.658;10.118;2022-08-04T21:59:20;20.90;99.90
1524;DHT22;755;53.658;10.118;2022-08-04T22:09:22;20.60;99.90
1524;DHT22;755;53.658;10.118;2022-08-04T22:19:26;20.50;99.90
1524;DHT22;755;53.658;10.118;2022-08-04T22:29:29;20.20;99.90
1524;DHT22;755;53.658;10.118;2022-08-04T22:39:33;20.20;99.90
1524;DHT22;755;53.658;10.118;2022-08-04T22:49:35;19.90;99.90
1524;DHT22;755;53.658;10.118;2022-08-04T22:59:39;19.80;99.90
1524;DHT22;755;53.658;10.118;2022-08-04T23:09:41;19.80;99.90
1524;DHT22;755;53.658;10.118;2022-08-04T23:19:45;19.70;99.90
1524;DHT22;755;53.658;10.118;2022-08-04T23:29:49;19.60;99.90
1524;DHT22;755;53.658;10.118;2022-08-04T23:39:52;19.40;99.90
1524;DHT22;755;53.658;10.118;2022-08-04T23:49:55;19.30;99.90
1524;DHT22;755;53.658;10.118;2022-08-04T23:59:58;19.30;99.90
